メインページ
METAR-TAF:

METAR-TAF

空港 :

Fort Chipewyan, アルバータ州, カナダ

緯度: 58-46N, 経度: 111-07W, 海抜: 232m

現時点の気象観測

当レポートは33分前の06:00(UTC)に作成
西の風 4kt
気温 -29°C
湿度 68%
気圧 1012 hPa
視程: 14.5km
晴天

METAR: CYPY 150600Z AUTO 26004KT 9SM CLR M29/M33 A2989 RMK SLP155

時間: 23:33 (06:33 UTC)

予報

当レポートは59分前の05:34(UTC)に作成
予報は15日の 05時(UTC)から 15日の 07時(UTC)まで有効
西の風 5kt
視程: 10km
高度800ftの雲は散在している
15日の 05時(UTC)から 15日の 07時(UTC)まで一時的に
視程: 8.0km
高度800ftの千切れ雲あり
小雪, 靄

TAF: CYPY 150534Z 1505/1507 27005KT P6SM SCT008 TEMPO 1505/1507 5SM -SN BR BKN008 RMK FCST BASED ON AUTO OBS. NXT FCST WILL BE ISSUED AT 151245Z

4,000以上の空港の気象観測と天気予報(METAR報とTAF報)

利用可能な観測所は地図上に黄色い丸と赤い丸で示す。

丸の上にカーソルを重ねると観測所名を参照できる。

次にクリックすると気象観測と天気予報を参照できる。

マップの切り替え:黒色「×」印の緑ボタンをクリックして拡大、「-」印の緑ボタンをクリックして縮小、緑色の三角印をクリックして隣りの地図に切り替え


METAR-TAF: